Seaempress — 9HFA7 — position and weather

sailwx.info

Track history (hours):
 
Tides and Currents Weather Stations Pressure Air Temp Water Temp Dewpoint Dewpoint Depression Visibility Wind Speed Wind Dir Waves Ship Positions

Seaempress

Last reported at 2017-Dec-11 17:00 UTC. Time now 2017-Dec-13 18:59 UTC.
Position N 44°00' E 038°41'.

Length 182 m; draft 7.5 m.

Type: Tanker. MMSI: 215171000.

Date/timePositionNaut miles runAvg speedWind from/ knotsBaromVisibWave heightAir tempDewpointWater temp
2017-Dec-11 17:00N 44°00' E 038°41'1 1.6
2017-Dec-11 16:30N 43°60' E 038°42'1 1.7
2017-Dec-11 16:00N 43°59' E 038°42'1 1.6
2017-Dec-11 15:30N 43°58' E 038°43'1 1.5
2017-Dec-11 15:00N 43°57' E 038°43'1 1.5
2017-Dec-11 14:30N 43°57' E 038°43'1 1.5
2017-Dec-11 14:00N 43°56' E 038°43'1 2.7
2017-Dec-11 13:30N 43°55' E 038°42'610.9
2017-Dec-11 13:00N 43°54' E 038°34'713.2
2017-Dec-11 12:29N 43°53' E 038°25'45112.6
2017-Dec-10 00:45N 41°01' E 028°60'2 8.0
2017-Dec-10 00:30N 40°59' E 028°60'3 6.0
2017-Dec-10 00:00N 40°56' E 028°58'4 7.9
2017-Dec-09 23:29N 40°57' E 028°53'0 0.0
2017-Dec-09 10:49N 40°57' E 028°52'  
2017-Dec-07 04:06N 38°23' E 024°54'113.0
2017-Dec-07 04:00N 38°21' E 024°53'2512.8
2017-Dec-07 02:04N 37°59' E 024°39'112.7
2017-Dec-07 02:00N 37°59' E 024°38'612.5
2017-Dec-07 01:30N 37°53' E 024°35'612.7
2017-Dec-07 01:00N 37°49' E 024°28'713.3
2017-Dec-07 00:30N 37°46' E 024°21'712.8
2017-Dec-06 23:59N 37°41' E 024°15'613.3
2017-Dec-06 23:30N 37°36' E 024°10'612.1
2017-Dec-06 23:00N 37°33' E 024°04'612.1
2017-Dec-06 22:30N 37°34' E 023°57'713.3
2017-Dec-06 22:00N 37°37' E 023°49'612.9
2017-Dec-06 21:30N 37°40' E 023°43'713.3
2017-Dec-06 21:00N 37°46' E 023°38'  
2017-Dec-03 11:05N 36°23' E 014°57'212.9
2017-Dec-03 10:58N 36°23' E 014°55'613.4
2017-Dec-03 10:29N 36°24' E 014°47'713.3
2017-Dec-03 10:00N 36°24' E 014°39'713.9
2017-Dec-03 09:30N 36°25' E 014°30'612.2
2017-Dec-03 09:00N 36°27' E 014°23'613.0
2017-Dec-03 08:30N 36°29' E 014°16'612.8
2017-Dec-03 08:00N 36°31' E 014°08'612.8
2017-Dec-03 07:30N 36°34' E 014°01'612.6
2017-Dec-03 07:00N 36°35' E 013°53'612.5
2017-Dec-03 06:30N 36°37' E 013°46'  
Track history (hours):
 
Tides and Currents Weather Stations Pressure Air Temp Water Temp Dewpoint Dewpoint Depression Visibility Wind Speed Wind Dir Waves Ship Positions

Seaempress

Last reported at 2017-Dec-11 17:00 UTC. Time now 2017-Dec-13 18:59 UTC.
Position N 44°00' E 038°41'.

Length 182 m; draft 7.5 m.

Type: Tanker. MMSI: 215171000.

Date/timePositionNaut miles runAvg speedWind from/ knotsBaromVisibWave heightAir tempDewpointWater temp
2017-Dec-11 17:00N 44°00' E 038°41'1 1.6
2017-Dec-11 16:30N 43°60' E 038°42'1 1.7
2017-Dec-11 16:00N 43°59' E 038°42'1 1.6
2017-Dec-11 15:30N 43°58' E 038°43'1 1.5
2017-Dec-11 15:00N 43°57' E 038°43'1 1.5
2017-Dec-11 14:30N 43°57' E 038°43'1 1.5
2017-Dec-11 14:00N 43°56' E 038°43'1 2.7
2017-Dec-11 13:30N 43°55' E 038°42'610.9
2017-Dec-11 13:00N 43°54' E 038°34'713.2
2017-Dec-11 12:29N 43°53' E 038°25'45112.6
2017-Dec-10 00:45N 41°01' E 028°60'2 8.0
2017-Dec-10 00:30N 40°59' E 028°60'3 6.0
2017-Dec-10 00:00N 40°56' E 028°58'4 7.9
2017-Dec-09 23:29N 40°57' E 028°53'0 0.0
2017-Dec-09 10:49N 40°57' E 028°52'  
2017-Dec-07 04:06N 38°23' E 024°54'113.0
2017-Dec-07 04:00N 38°21' E 024°53'2512.8
2017-Dec-07 02:04N 37°59' E 024°39'112.7
2017-Dec-07 02:00N 37°59' E 024°38'612.5
2017-Dec-07 01:30N 37°53' E 024°35'612.7
2017-Dec-07 01:00N 37°49' E 024°28'713.3
2017-Dec-07 00:30N 37°46' E 024°21'712.8
2017-Dec-06 23:59N 37°41' E 024°15'613.3
2017-Dec-06 23:30N 37°36' E 024°10'612.1
2017-Dec-06 23:00N 37°33' E 024°04'612.1
2017-Dec-06 22:30N 37°34' E 023°57'713.3
2017-Dec-06 22:00N 37°37' E 023°49'612.9
2017-Dec-06 21:30N 37°40' E 023°43'713.3
2017-Dec-06 21:00N 37°46' E 023°38'  
2017-Dec-03 11:05N 36°23' E 014°57'212.9
2017-Dec-03 10:58N 36°23' E 014°55'613.4
2017-Dec-03 10:29N 36°24' E 014°47'713.3
2017-Dec-03 10:00N 36°24' E 014°39'713.9
2017-Dec-03 09:30N 36°25' E 014°30'612.2
2017-Dec-03 09:00N 36°27' E 014°23'613.0
2017-Dec-03 08:30N 36°29' E 014°16'612.8
2017-Dec-03 08:00N 36°31' E 014°08'612.8
2017-Dec-03 07:30N 36°34' E 014°01'612.6
2017-Dec-03 07:00N 36°35' E 013°53'612.5
2017-Dec-03 06:30N 36°37' E 013°46'  

Dump ship's entire track history